KSBP/SBP METAR and TAF weather

Enter ICAO airport designator
Station Type Date Time Source
KSBP METAR 2020/07/12 04:56 UTC NOAA

KSBP 120456Z AUTO 31003KT 10SM CLR 15/12 A2998 RMK AO2 SLP151 T01500117 $


Station Type Date Time Source
KSBP Decoded METAR 2020/07/12 04:56 UTC NOAA

SAN LUIS OBISPO MC CHESNEY, CA, United States (KSBP) 35-14N 120-38W 59M
Jul 12, 2020 - 12:56 AM EDT / 2020.07.12 0456 UTC
Wind: from the NW (310 degrees) at 3 MPH (3 KT):0
Visibility: 10 mile(s):0
Sky conditions: clear
Temperature: 59.0 F (15.0 C)
Dew Point: 53.1 F (11.7 C)
Relative Humidity: 80%
Pressure (altimeter): 29.98 in. Hg (1015 hPa)
ob: KSBP 120456Z AUTO 31003KT 10SM CLR 15/12 A2998 RMK AO2 SLP151 T01500117
cycle: 5

Station Type Date Time Source
KSBP TAF 2020/07/12 06:36 UTC NOAA

TAF KSBP 120534Z 1206/1306 VRB03KT P6SM SKC
FM122000 30012KT P6SM SKC
FM130400 VRB03KT P6SM SKC

Example: see airport list